createdAt,value
2018-06-30T00:00:41.984Z,1014.08
2018-06-30T00:01:41.947Z,1014.10
2018-06-30T00:02:41.900Z,1014.08
2018-06-30T00:03:41.857Z,1014.12
2018-06-30T00:04:41.815Z,1014.10
2018-06-30T00:05:41.771Z,1014.14
2018-06-30T00:06:41.729Z,1014.15
2018-06-30T00:07:41.687Z,1014.09
2018-06-30T00:08:41.645Z,1014.13
2018-06-30T00:09:41.601Z,1014.14
2018-06-30T00:10:41.559Z,1014.16
2018-06-30T00:11:41.518Z,1014.18
2018-06-30T00:12:41.477Z,1014.16
2018-06-30T00:13:41.432Z,1014.16
2018-06-30T00:14:41.388Z,1014.17
2018-06-30T00:15:41.347Z,1014.13
2018-06-30T00:16:41.306Z,1014.17
2018-06-30T00:17:41.264Z,1014.20
2018-06-30T00:18:41.221Z,1014.17
2018-06-30T00:19:41.178Z,1014.20
2018-06-30T00:20:41.135Z,1014.20
2018-06-30T00:21:41.094Z,1014.25
2018-06-30T00:22:41.049Z,1014.23
2018-06-30T00:23:41.007Z,1014.26
2018-06-30T00:24:41.015Z,1014.21
2018-06-30T00:25:40.921Z,1014.20
2018-06-30T00:26:40.878Z,1014.19
2018-06-30T00:27:40.836Z,1014.25
2018-06-30T00:28:40.795Z,1014.23
2018-06-30T00:29:40.755Z,1014.23
2018-06-30T00:30:40.708Z,1014.23
2018-06-30T00:31:40.667Z,1014.25
2018-06-30T00:32:40.623Z,1014.25
2018-06-30T00:33:40.580Z,1014.27
2018-06-30T00:34:40.538Z,1014.27
2018-06-30T00:35:40.495Z,1014.27
2018-06-30T00:36:40.454Z,1014.29
2018-06-30T00:37:40.409Z,1014.30
2018-06-30T00:38:40.370Z,1014.29
2018-06-30T00:39:40.327Z,1014.30
2018-06-30T00:40:40.284Z,1014.31
2018-06-30T00:41:40.239Z,1014.25
2018-06-30T00:42:40.197Z,1014.30
2018-06-30T00:43:40.157Z,1014.30
2018-06-30T00:44:40.114Z,1014.27
2018-06-30T00:45:40.069Z,1014.31
2018-06-30T00:46:40.028Z,1014.33
2018-06-30T00:47:39.985Z,1014.33
2018-06-30T00:48:40.092Z,1014.34
2018-06-30T00:49:39.898Z,1014.34
2018-06-30T00:50:39.856Z,1014.34
2018-06-30T00:51:39.813Z,1014.38
2018-06-30T00:52:39.772Z,1014.37
2018-06-30T00:53:39.729Z,1014.39
2018-06-30T00:54:39.686Z,1014.40
2018-06-30T00:55:39.649Z,1014.42
2018-06-30T00:56:39.600Z,1014.43
2018-06-30T00:57:39.556Z,1014.39
2018-06-30T00:58:39.514Z,1014.40
2018-06-30T00:59:39.471Z,1014.44
2018-06-30T01:00:39.429Z,1014.39
2018-06-30T01:01:39.385Z,1014.42
2018-06-30T01:02:39.343Z,1014.42
2018-06-30T01:03:39.301Z,1014.45
2018-06-30T01:04:39.258Z,1014.46
2018-06-30T01:05:39.214Z,1014.46
2018-06-30T01:06:39.172Z,1014.46
2018-06-30T01:07:39.129Z,1014.48
2018-06-30T01:08:39.087Z,1014.47
2018-06-30T01:09:39.043Z,1014.46
2018-06-30T01:10:39.001Z,1014.49
2018-06-30T01:11:38.958Z,1014.52
2018-06-30T01:12:38.915Z,1014.49
2018-06-30T01:13:38.872Z,1014.54
2018-06-30T01:14:38.829Z,1014.49
2018-06-30T01:15:38.787Z,1014.46
2018-06-30T01:16:38.795Z,1014.51
2018-06-30T01:17:38.701Z,1014.51
2018-06-30T01:18:38.658Z,1014.50
2018-06-30T01:19:38.617Z,1014.53
2018-06-30T01:20:38.573Z,1014.55
2018-06-30T01:21:38.530Z,1014.57
2018-06-30T01:22:38.487Z,1014.59
2018-06-30T01:23:38.445Z,1014.62
2018-06-30T01:24:38.402Z,1014.61
2018-06-30T01:25:38.358Z,1014.65
2018-06-30T01:26:38.316Z,1014.64
2018-06-30T01:27:38.277Z,1014.66
2018-06-30T01:28:38.231Z,1014.63
2018-06-30T01:29:38.187Z,1014.63
2018-06-30T01:30:38.145Z,1014.66
2018-06-30T01:31:38.102Z,1014.65
2018-06-30T01:32:38.065Z,1014.63
2018-06-30T01:33:38.021Z,1014.65
2018-06-30T01:34:37.974Z,1014.64
2018-06-30T01:35:37.931Z,1014.64
2018-06-30T01:36:37.888Z,1014.66
2018-06-30T01:37:37.845Z,1014.66
2018-06-30T01:38:37.805Z,1014.62
2018-06-30T01:39:37.760Z,1014.65
2018-06-30T01:40:37.717Z,1014.66
2018-06-30T01:41:37.673Z,1014.62
2018-06-30T01:42:37.634Z,1014.62
2018-06-30T01:43:37.588Z,1014.60
2018-06-30T01:44:37.546Z,1014.62
2018-06-30T01:45:37.502Z,1014.60
2018-06-30T01:46:37.459Z,1014.59
2018-06-30T01:47:37.416Z,1014.56
2018-06-30T01:48:37.374Z,1014.68
2018-06-30T01:49:37.330Z,1014.64
2018-06-30T01:50:37.288Z,1014.63
2018-06-30T01:51:37.249Z,1014.62
2018-06-30T01:52:37.202Z,1014.65
2018-06-30T01:53:37.159Z,1014.60
2018-06-30T01:54:37.116Z,1014.63
2018-06-30T01:55:37.073Z,1014.64
2018-06-30T01:56:37.030Z,1014.68
2018-06-30T01:57:36.987Z,1014.70
2018-06-30T01:58:36.944Z,1014.72
2018-06-30T01:59:36.901Z,1014.71
2018-06-30T02:00:36.859Z,1014.71
2018-06-30T02:01:36.815Z,1014.71
2018-06-30T02:02:36.772Z,1014.79
2018-06-30T02:03:36.730Z,1014.77
2018-06-30T02:04:36.690Z,1014.71
2018-06-30T02:05:36.643Z,1014.78
2018-06-30T02:06:36.601Z,1014.73
2018-06-30T02:07:36.558Z,1014.74
2018-06-30T02:08:36.515Z,1014.70
2018-06-30T02:09:36.472Z,1014.73
2018-06-30T02:10:36.481Z,1014.76
2018-06-30T02:11:36.386Z,1014.80
2018-06-30T02:12:36.343Z,1014.82
2018-06-30T02:13:36.299Z,1014.81
2018-06-30T02:14:36.257Z,1014.81
2018-06-30T02:15:36.216Z,1014.85
2018-06-30T02:16:36.171Z,1014.81
2018-06-30T02:17:36.128Z,1014.88
2018-06-30T02:18:36.085Z,1014.94
2018-06-30T02:19:36.042Z,1014.86
2018-06-30T02:20:36.001Z,1014.89
2018-06-30T02:21:36.002Z,1014.88
2018-06-30T02:22:35.913Z,1014.90
2018-06-30T02:23:35.871Z,1014.91
2018-06-30T02:24:35.828Z,1014.93
2018-06-30T02:25:35.785Z,1014.97
2018-06-30T02:26:35.741Z,1014.97
2018-06-30T02:27:35.748Z,1015.00
2018-06-30T02:28:35.755Z,1014.99
2018-06-30T02:29:35.611Z,1015.06
2018-06-30T02:30:35.569Z,1015.07
2018-06-30T02:31:35.526Z,1015.04
2018-06-30T02:32:35.483Z,1015.09
2018-06-30T02:33:35.440Z,1015.08
2018-06-30T02:34:35.414Z,1015.12
2018-06-30T02:35:35.359Z,1015.12
2018-06-30T02:36:35.311Z,1015.15
2018-06-30T02:37:35.270Z,1015.10
2018-06-30T02:38:35.224Z,1015.09
2018-06-30T02:39:35.182Z,1015.03
2018-06-30T02:40:35.146Z,1015.09
2018-06-30T02:41:35.096Z,1015.10
2018-06-30T02:42:35.052Z,1015.10
2018-06-30T02:43:35.009Z,1015.10
2018-06-30T02:44:34.967Z,1015.13
2018-06-30T02:45:34.923Z,1015.15
2018-06-30T02:46:34.882Z,1015.18
2018-06-30T02:47:34.837Z,1015.18
2018-06-30T02:48:34.794Z,1015.19
2018-06-30T02:49:34.750Z,1015.16
2018-06-30T02:50:34.759Z,1015.19
2018-06-30T02:51:34.665Z,1015.21
2018-06-30T02:52:34.621Z,1015.23
2018-06-30T02:53:34.578Z,1015.25
2018-06-30T02:54:34.534Z,1015.24
2018-06-30T02:55:34.492Z,1015.28
2018-06-30T02:56:34.454Z,1015.25
2018-06-30T02:57:34.407Z,1015.22
2018-06-30T02:58:34.362Z,1015.25
2018-06-30T02:59:34.319Z,1015.28
2018-06-30T03:00:34.276Z,1015.29
2018-06-30T03:01:34.237Z,1015.29
2018-06-30T03:02:34.191Z,1015.29
2018-06-30T03:03:34.146Z,1015.28
2018-06-30T03:04:34.104Z,1015.30
2018-06-30T03:05:34.059Z,1015.28
2018-06-30T03:06:34.020Z,1015.28
2018-06-30T03:07:33.973Z,1015.29
2018-06-30T03:08:33.931Z,1015.28
2018-06-30T03:09:33.894Z,1015.29
2018-06-30T03:10:33.845Z,1015.27
2018-06-30T03:11:33.803Z,1015.31
2018-06-30T03:12:33.758Z,1015.29
2018-06-30T03:13:33.714Z,1015.29
2018-06-30T03:14:33.672Z,1015.28
2018-06-30T03:15:33.628Z,1015.26
2018-06-30T03:16:33.586Z,1015.28
2018-06-30T03:17:33.542Z,1015.31
2018-06-30T03:18:33.498Z,1015.33
2018-06-30T03:19:33.456Z,1015.36
2018-06-30T03:20:33.413Z,1015.37
2018-06-30T03:21:33.369Z,1015.37
2018-06-30T03:22:33.326Z,1015.37
2018-06-30T03:23:33.288Z,1015.40
2018-06-30T03:24:33.240Z,1015.41
2018-06-30T03:25:33.196Z,1015.44
2018-06-30T03:26:33.152Z,1015.40
2018-06-30T03:27:33.110Z,1015.40
2018-06-30T03:28:33.067Z,1015.40
2018-06-30T03:29:33.029Z,1015.37
2018-06-30T03:30:32.980Z,1015.36
2018-06-30T03:31:33.020Z,1015.40
2018-06-30T03:32:32.895Z,1015.36
2018-06-30T03:33:32.890Z,1015.39
2018-06-30T03:34:32.806Z,1015.42
2018-06-30T03:35:32.764Z,1015.43
2018-06-30T03:36:32.720Z,1015.42
2018-06-30T03:37:32.676Z,1015.41
2018-06-30T03:38:32.697Z,1015.44
2018-06-30T03:39:32.590Z,1015.42
2018-06-30T03:40:32.547Z,1015.47
2018-06-30T03:41:32.503Z,1015.49
2018-06-30T03:42:32.460Z,1015.45
2018-06-30T03:43:32.417Z,1015.46
2018-06-30T03:44:32.374Z,1015.49
2018-06-30T03:45:32.330Z,1015.48
2018-06-30T03:46:32.287Z,1015.47
2018-06-30T03:47:32.244Z,1015.48
2018-06-30T03:48:32.201Z,1015.51
2018-06-30T03:49:32.157Z,1015.48
2018-06-30T03:50:32.114Z,1015.48
2018-06-30T03:51:32.070Z,1015.48
2018-06-30T03:52:32.033Z,1015.50
2018-06-30T03:53:31.984Z,1015.55
2018-06-30T03:54:31.980Z,1015.52
2018-06-30T03:55:31.897Z,1015.59
2018-06-30T03:56:31.854Z,1015.63
2018-06-30T03:57:31.810Z,1015.61
2018-06-30T03:58:31.766Z,1015.64
2018-06-30T03:59:31.723Z,1015.68
2018-06-30T04:00:31.681Z,1015.69
2018-06-30T04:01:31.636Z,1015.64
2018-06-30T04:02:31.593Z,1015.65
2018-06-30T04:03:31.550Z,1015.67
2018-06-30T04:04:31.507Z,1015.63
2018-06-30T04:05:31.462Z,1015.64
2018-06-30T04:06:31.420Z,1015.68
2018-06-30T04:07:31.377Z,1015.66
2018-06-30T04:08:31.335Z,1015.63
2018-06-30T04:09:31.289Z,1015.64
2018-06-30T04:10:31.246Z,1015.63
2018-06-30T04:11:31.204Z,1015.67
2018-06-30T04:12:31.160Z,1015.67
2018-06-30T04:13:31.116Z,1015.70
2018-06-30T04:14:31.073Z,1015.69
2018-06-30T04:15:31.035Z,1015.71
2018-06-30T04:16:30.986Z,1015.72
2018-06-30T04:17:30.942Z,1015.73
2018-06-30T04:18:30.899Z,1015.74
2018-06-30T04:19:30.857Z,1015.71
2018-06-30T04:20:30.812Z,1015.77
2018-06-30T04:21:30.768Z,1015.76
2018-06-30T04:22:30.725Z,1015.78
2018-06-30T04:23:30.682Z,1015.80
2018-06-30T04:24:30.647Z,1015.77
2018-06-30T04:25:30.661Z,1015.77
2018-06-30T04:26:30.551Z,1015.78
2018-06-30T04:27:30.511Z,1015.78
2018-06-30T04:28:30.465Z,1015.79
2018-06-30T04:29:30.421Z,1015.77
2018-06-30T04:30:30.379Z,1015.78
2018-06-30T04:31:30.335Z,1015.82
2018-06-30T04:32:30.291Z,1015.80
2018-06-30T04:33:30.246Z,1015.83
2018-06-30T04:34:30.204Z,1015.83
2018-06-30T04:35:30.160Z,1015.86
2018-06-30T04:36:30.117Z,1015.82
2018-06-30T04:37:30.073Z,1015.83
2018-06-30T04:38:30.032Z,1015.86
2018-06-30T04:39:29.986Z,1015.85
2018-06-30T04:40:29.943Z,1015.87
2018-06-30T04:41:29.899Z,1015.91
2018-06-30T04:42:29.859Z,1015.92
2018-06-30T04:43:29.812Z,1015.92
2018-06-30T04:44:29.769Z,1015.95
2018-06-30T04:45:29.725Z,1015.89
2018-06-30T04:46:29.683Z,1015.95
2018-06-30T04:47:29.653Z,1015.96
2018-06-30T04:48:29.598Z,1016.01
2018-06-30T04:49:29.552Z,1015.98
2018-06-30T04:50:29.508Z,1015.99
2018-06-30T04:51:29.465Z,1015.97
2018-06-30T04:52:29.422Z,1015.96
2018-06-30T04:53:29.380Z,1015.97
2018-06-30T04:54:29.335Z,1016.01
2018-06-30T04:55:29.291Z,1015.98
2018-06-30T04:56:29.248Z,1016.00
2018-06-30T04:57:29.222Z,1016.01
2018-06-30T04:58:29.161Z,1015.97
2018-06-30T04:59:29.118Z,1016.00
2018-06-30T05:00:29.075Z,1016.03
2018-06-30T05:01:29.030Z,1016.04
2018-06-30T05:02:28.988Z,1016.06
2018-06-30T05:03:28.944Z,1016.04
2018-06-30T05:04:28.901Z,1016.02
2018-06-30T05:05:28.857Z,1016.04
2018-06-30T05:06:28.814Z,1016.02
2018-06-30T05:07:28.770Z,1016.07
2018-06-30T05:08:28.727Z,1016.05
2018-06-30T05:09:28.684Z,1016.04
2018-06-30T05:10:28.640Z,1016.03
2018-06-30T05:11:28.597Z,1016.03
2018-06-30T05:12:28.561Z,1016.05
2018-06-30T05:13:28.510Z,1016.02
2018-06-30T05:14:28.467Z,1016.06
2018-06-30T05:15:28.424Z,1016.06
2018-06-30T05:16:28.381Z,1016.08
2018-06-30T05:17:28.337Z,1016.04
2018-06-30T05:18:28.293Z,1016.07
2018-06-30T05:19:28.250Z,1016.09
2018-06-30T05:20:28.208Z,1016.04
2018-06-30T05:21:28.163Z,1016.08
2018-06-30T05:22:28.122Z,1016.06
2018-06-30T05:23:28.077Z,1016.12
2018-06-30T05:24:28.036Z,1016.10
2018-06-30T05:25:27.990Z,1016.06
2018-06-30T05:26:27.947Z,1016.06
2018-06-30T05:27:27.904Z,1016.09
2018-06-30T05:28:27.861Z,1016.10
2018-06-30T05:29:27.817Z,1016.05
2018-06-30T05:30:27.774Z,1016.10
2018-06-30T05:31:27.735Z,1016.13
2018-06-30T05:32:27.688Z,1016.07
2018-06-30T05:33:27.826Z,1016.09
2018-06-30T05:34:27.601Z,1016.09
2018-06-30T05:35:27.561Z,1016.07
2018-06-30T05:36:27.515Z,1016.08
2018-06-30T05:37:27.473Z,1016.13
2018-06-30T05:38:27.435Z,1016.15
2018-06-30T05:39:27.386Z,1016.13
2018-06-30T05:40:27.345Z,1016.14
2018-06-30T05:41:27.307Z,1016.14
2018-06-30T05:42:27.255Z,1016.13
2018-06-30T05:43:27.213Z,1016.16
2018-06-30T05:44:27.170Z,1016.15
2018-06-30T05:45:27.126Z,1016.13
2018-06-30T05:46:27.087Z,1016.16
2018-06-30T05:47:27.040Z,1016.17
2018-06-30T05:48:26.998Z,1016.20
2018-06-30T05:49:26.953Z,1016.17
2018-06-30T05:50:26.913Z,1016.15
2018-06-30T05:51:26.868Z,1016.17
2018-06-30T05:52:26.825Z,1016.22
2018-06-30T05:53:26.782Z,1016.19
2018-06-30T05:54:26.743Z,1016.16
2018-06-30T05:55:26.707Z,1016.22
2018-06-30T05:56:26.703Z,1016.27
2018-06-30T05:57:26.609Z,1016.27
2018-06-30T05:58:26.567Z,1016.27
2018-06-30T05:59:26.563Z,1016.29
2018-06-30T06:00:26.482Z,1016.32
2018-06-30T06:01:26.537Z,1016.28
2018-06-30T06:02:26.395Z,1016.29
2018-06-30T06:03:26.352Z,1016.31
2018-06-30T06:04:26.309Z,1016.38
2018-06-30T06:05:26.271Z,1016.30
2018-06-30T06:06:26.225Z,1016.38
2018-06-30T06:07:26.180Z,1016.38
2018-06-30T06:08:26.138Z,1016.37
2018-06-30T06:09:26.094Z,1016.35
2018-06-30T06:10:26.054Z,1016.38
2018-06-30T06:11:26.009Z,1016.36
2018-06-30T06:12:25.966Z,1016.35
2018-06-30T06:13:25.973Z,1016.37
2018-06-30T06:14:25.929Z,1016.40
2018-06-30T06:15:25.995Z,1016.41
2018-06-30T06:16:25.795Z,1016.34
2018-06-30T06:17:25.752Z,1016.35
2018-06-30T06:18:25.709Z,1016.32
2018-06-30T06:19:25.670Z,1016.32
2018-06-30T06:20:25.624Z,1016.38
2018-06-30T06:21:25.581Z,1016.42
2018-06-30T06:22:25.538Z,1016.34
2018-06-30T06:23:25.496Z,1016.39
2018-06-30T06:24:25.454Z,1016.39
2018-06-30T06:25:25.410Z,1016.34
2018-06-30T06:26:25.368Z,1016.32
2018-06-30T06:27:25.345Z,1016.34
2018-06-30T06:28:25.284Z,1016.39
2018-06-30T06:29:25.239Z,1016.33
2018-06-30T06:30:25.199Z,1016.34
2018-06-30T06:31:25.155Z,1016.34
2018-06-30T06:32:25.114Z,1016.35
2018-06-30T06:33:25.075Z,1016.38
2018-06-30T06:34:25.027Z,1016.41
2018-06-30T06:35:24.984Z,1016.39
2018-06-30T06:36:24.942Z,1016.47
2018-06-30T06:37:24.898Z,1016.41
2018-06-30T06:38:24.856Z,1016.41
2018-06-30T06:39:24.814Z,1016.41
2018-06-30T06:40:24.778Z,1016.37
2018-06-30T06:41:24.729Z,1016.41
2018-06-30T06:42:24.687Z,1016.44
2018-06-30T06:43:24.647Z,1016.41
2018-06-30T06:44:24.602Z,1016.39
2018-06-30T06:45:24.559Z,1016.38
2018-06-30T06:46:24.516Z,1016.39
2018-06-30T06:47:24.474Z,1016.35
2018-06-30T06:48:24.433Z,1016.42
2018-06-30T06:49:24.396Z,1016.44
2018-06-30T06:50:24.347Z,1016.39
2018-06-30T06:51:24.305Z,1016.41
2018-06-30T06:52:24.269Z,1016.40
2018-06-30T06:53:24.220Z,1016.41
2018-06-30T06:54:24.178Z,1016.43
2018-06-30T06:55:24.136Z,1016.42
2018-06-30T06:56:24.156Z,1016.40
2018-06-30T06:57:24.051Z,1016.41
2018-06-30T06:58:24.009Z,1016.41
2018-06-30T06:59:23.967Z,1016.41
2018-06-30T07:00:23.925Z,1016.40
2018-06-30T07:01:23.882Z,1016.38
2018-06-30T07:02:23.840Z,1016.39
2018-06-30T07:03:23.798Z,1016.37
2018-06-30T07:04:23.759Z,1016.40
2018-06-30T07:05:23.714Z,1016.36
2018-06-30T07:06:23.672Z,1016.41
2018-06-30T07:07:23.629Z,1016.41
2018-06-30T07:08:23.588Z,1016.34
2018-06-30T07:09:23.544Z,1016.34
2018-06-30T07:10:23.503Z,1016.35
2018-06-30T07:11:23.467Z,1016.38
2018-06-30T07:12:23.419Z,1016.39
2018-06-30T07:13:23.376Z,1016.42
2018-06-30T07:14:23.335Z,1016.45
2018-06-30T07:15:23.295Z,1016.37
2018-06-30T07:16:23.251Z,1016.40
2018-06-30T07:17:23.208Z,1016.41
2018-06-30T07:18:23.218Z,1016.45
2018-06-30T07:19:23.125Z,1016.48
2018-06-30T07:20:23.083Z,1016.46
2018-06-30T07:21:23.040Z,1016.46
2018-06-30T07:22:23.000Z,1016.44
2018-06-30T07:23:22.963Z,1016.39
2018-06-30T07:24:22.914Z,1016.40
2018-06-30T07:25:22.872Z,1016.41
2018-06-30T07:26:22.831Z,1016.43
2018-06-30T07:27:22.789Z,1016.45
2018-06-30T07:28:22.747Z,1016.43
2018-06-30T07:29:22.705Z,1016.43
2018-06-30T07:30:22.663Z,1016.43
2018-06-30T07:31:22.621Z,1016.41
2018-06-30T07:32:22.580Z,1016.43
2018-06-30T07:33:22.563Z,1016.42
2018-06-30T07:34:22.530Z,1016.38
2018-06-30T07:35:22.454Z,1016.39
2018-06-30T07:36:22.412Z,1016.42
2018-06-30T07:37:22.412Z,1016.42
2018-06-30T07:38:22.328Z,1016.44
2018-06-30T07:39:22.288Z,1016.48
2018-06-30T07:40:22.245Z,1016.54
2018-06-30T07:41:22.202Z,1016.48
2018-06-30T07:42:22.161Z,1016.46
2018-06-30T07:43:22.119Z,1016.45
2018-06-30T07:44:22.076Z,1016.56
2018-06-30T07:45:22.035Z,1016.43
2018-06-30T07:46:21.994Z,1016.49
2018-06-30T07:47:21.952Z,1016.50
2018-06-30T07:48:21.910Z,1016.52
2018-06-30T07:49:21.868Z,1016.54
2018-06-30T07:50:21.830Z,1016.56
2018-06-30T07:51:21.785Z,1016.60
2018-06-30T07:52:21.746Z,1016.57
2018-06-30T07:53:21.701Z,1016.56
2018-06-30T07:54:21.660Z,1016.56
2018-06-30T07:55:21.619Z,1016.55
2018-06-30T07:56:21.577Z,1016.52
2018-06-30T07:57:21.534Z,1016.55
2018-06-30T07:58:21.496Z,1016.50
2018-06-30T07:59:21.451Z,1016.47
2018-06-30T08:00:21.413Z,1016.58
2018-06-30T08:01:21.371Z,1016.60
2018-06-30T08:02:21.326Z,1016.58
2018-06-30T08:03:21.286Z,1016.55
2018-06-30T08:04:21.243Z,1016.59
2018-06-30T08:05:21.201Z,1016.57
2018-06-30T08:06:21.160Z,1016.54
2018-06-30T08:07:21.122Z,1016.59
2018-06-30T08:08:21.077Z,1016.59
2018-06-30T08:09:21.035Z,1016.58
2018-06-30T08:10:20.994Z,1016.59
2018-06-30T08:11:20.953Z,1016.58
2018-06-30T08:12:20.912Z,1016.59
2018-06-30T08:13:20.869Z,1016.58
2018-06-30T08:14:20.835Z,1016.64
2018-06-30T08:15:20.788Z,1016.60
2018-06-30T08:16:20.746Z,1016.60
2018-06-30T08:17:20.704Z,1016.64
2018-06-30T08:18:20.663Z,1016.65
2018-06-30T08:19:20.623Z,1016.61
2018-06-30T08:20:20.581Z,1016.61
2018-06-30T08:21:20.540Z,1016.67
2018-06-30T08:22:20.498Z,1016.69
2018-06-30T08:23:20.457Z,1016.71
2018-06-30T08:24:20.417Z,1016.80
2018-06-30T08:25:20.375Z,1016.87
2018-06-30T08:26:20.334Z,1016.59
2018-06-30T08:27:20.293Z,1016.77
2018-06-30T08:28:20.253Z,1016.86
2018-06-30T08:29:20.211Z,1016.68
2018-06-30T08:30:20.170Z,1016.92
2018-06-30T08:31:20.130Z,1016.83
2018-06-30T08:32:20.089Z,1016.89
2018-06-30T08:33:20.050Z,1016.57
2018-06-30T08:34:20.057Z,1016.64
2018-06-30T08:35:19.966Z,1016.57
2018-06-30T08:36:20.009Z,1019.31
2018-06-30T08:37:19.885Z,1016.58
2018-06-30T08:38:19.844Z,1016.51
2018-06-30T08:39:19.804Z,1016.55
2018-06-30T08:40:19.763Z,1016.61
2018-06-30T08:41:19.721Z,1016.65
2018-06-30T08:42:19.681Z,1016.55
2018-06-30T08:43:19.640Z,1016.48
2018-06-30T08:44:19.600Z,1016.60
2018-06-30T08:45:19.559Z,1020.53
2018-06-30T08:46:19.518Z,1020.84
2018-06-30T08:47:19.478Z,1021.85
2018-06-30T08:48:19.437Z,1022.48
2018-06-30T08:49:19.398Z,1016.73
2018-06-30T08:50:19.360Z,1021.93
2018-06-30T08:51:19.315Z,1023.02
2018-06-30T08:52:19.306Z,1020.23
2018-06-30T08:53:19.233Z,1016.54
2018-06-30T08:54:19.193Z,1016.60
2018-06-30T08:55:19.156Z,1016.70
2018-06-30T08:56:19.115Z,1016.62
2018-06-30T08:57:19.071Z,1017.03
2018-06-30T08:58:19.031Z,1016.58
2018-06-30T08:59:18.994Z,1016.54
2018-06-30T09:00:19.002Z,1016.53
2018-06-30T09:01:18.908Z,1026.29
2018-06-30T09:02:18.868Z,1020.40
2018-06-30T09:03:18.827Z,1016.59
2018-06-30T09:04:18.787Z,1017.65
2018-06-30T09:05:18.747Z,1016.77
2018-06-30T09:06:18.764Z,1016.95
2018-06-30T09:07:18.666Z,1018.15
2018-06-30T09:08:18.625Z,1018.19
2018-06-30T09:09:18.584Z,1017.20
2018-06-30T09:10:18.544Z,1017.51
2018-06-30T09:11:18.503Z,1023.94
2018-06-30T09:12:18.506Z,1023.80
2018-06-30T09:13:18.421Z,1017.51
2018-06-30T09:14:18.380Z,1020.62
2018-06-30T09:15:18.340Z,1017.70
2018-06-30T09:16:18.366Z,1021.11
2018-06-30T09:17:18.260Z,1018.62
2018-06-30T09:18:18.218Z,1016.79
2018-06-30T09:19:18.178Z,1021.29
2018-06-30T09:20:18.215Z,1017.38
2018-06-30T09:21:18.097Z,1026.43
2018-06-30T09:22:18.060Z,1024.09
2018-06-30T09:23:18.025Z,1025.10
2018-06-30T09:24:18.094Z,1027.49
2018-06-30T09:25:17.937Z,1023.97
2018-06-30T09:26:17.895Z,1023.25
2018-06-30T09:27:17.857Z,1022.94
2018-06-30T09:28:17.815Z,1023.11
2018-06-30T09:29:17.775Z,1022.22
2018-06-30T09:30:17.741Z,1020.59
2018-06-30T09:31:17.695Z,1020.20
2018-06-30T09:32:17.655Z,1019.60
2018-06-30T09:33:17.614Z,1018.94
2018-06-30T09:34:17.575Z,1018.92
2018-06-30T09:35:17.535Z,1016.92
2018-06-30T09:36:17.496Z,1017.63
2018-06-30T09:37:17.457Z,1016.55
2018-06-30T09:38:17.415Z,1016.69
2018-06-30T09:39:17.376Z,1016.59
2018-06-30T09:40:17.336Z,1016.63
2018-06-30T09:41:17.295Z,1016.61
2018-06-30T09:42:17.255Z,1016.68
2018-06-30T09:43:17.220Z,1016.58
2018-06-30T09:44:17.238Z,1016.60
2018-06-30T09:45:17.139Z,1016.57
2018-06-30T09:46:17.095Z,1016.50
2018-06-30T09:47:17.055Z,1016.47
2018-06-30T09:48:17.016Z,1016.67
2018-06-30T09:49:16.975Z,1016.67
2018-06-30T09:50:16.946Z,1016.65
2018-06-30T09:51:16.894Z,1016.61
2018-06-30T09:52:16.855Z,1016.56
2018-06-30T09:53:16.814Z,1016.49
2018-06-30T09:54:16.774Z,1016.55
2018-06-30T09:55:16.733Z,1016.58
2018-06-30T09:56:16.694Z,1016.55
2018-06-30T09:57:16.652Z,1016.51
2018-06-30T09:58:16.612Z,1016.44
2018-06-30T09:59:16.572Z,1016.49
2018-06-30T10:00:16.532Z,1016.48
2018-06-30T10:01:16.497Z,1016.48
2018-06-30T10:02:16.451Z,1016.45
2018-06-30T10:03:16.411Z,1016.53
2018-06-30T10:04:16.369Z,1016.51
2018-06-30T10:05:16.328Z,1016.47
2018-06-30T10:06:16.292Z,1016.48
2018-06-30T10:07:16.248Z,1016.52
2018-06-30T10:08:16.208Z,1016.47
2018-06-30T10:09:16.256Z,1016.45
2018-06-30T10:10:16.126Z,1016.53
2018-06-30T10:11:16.085Z,1016.53
2018-06-30T10:12:16.045Z,1016.53
2018-06-30T10:13:16.003Z,1016.49
2018-06-30T10:14:15.963Z,1016.46
2018-06-30T10:15:15.923Z,1016.47
2018-06-30T10:16:15.882Z,1016.43
2018-06-30T10:17:15.841Z,1016.50
2018-06-30T10:18:15.800Z,1016.45
2018-06-30T10:19:15.822Z,1016.40
2018-06-30T10:20:15.720Z,1016.35
2018-06-30T10:21:15.761Z,1016.27
2018-06-30T10:22:15.637Z,1016.27
2018-06-30T10:23:15.597Z,1016.28
2018-06-30T10:24:15.556Z,1016.28
2018-06-30T10:25:15.515Z,1016.29
2018-06-30T10:26:15.474Z,1016.24
2018-06-30T10:27:15.434Z,1016.32
2018-06-30T10:28:15.393Z,1016.28
2018-06-30T10:29:15.351Z,1016.18
2018-06-30T10:30:15.311Z,1016.13
2018-06-30T10:31:15.300Z,1016.16
2018-06-30T10:32:15.230Z,1016.11
2018-06-30T10:33:15.189Z,1016.17
2018-06-30T10:34:15.148Z,1016.18
2018-06-30T10:35:15.112Z,1016.16
2018-06-30T10:36:15.072Z,1016.06
2018-06-30T10:37:15.025Z,1016.14
2018-06-30T10:38:14.985Z,1016.14
2018-06-30T10:39:14.944Z,1016.14
2018-06-30T10:40:14.903Z,1016.24
2018-06-30T10:41:14.861Z,1016.16
2018-06-30T10:42:14.865Z,1016.15
2018-06-30T10:43:14.779Z,1016.21
2018-06-30T10:44:14.739Z,1016.27
2018-06-30T10:45:14.698Z,1016.17
2018-06-30T10:46:14.657Z,1016.14
2018-06-30T10:47:14.618Z,1016.12
2018-06-30T10:48:14.576Z,1016.13
2018-06-30T10:49:14.538Z,1016.16
2018-06-30T10:50:14.493Z,1016.16
2018-06-30T10:51:14.453Z,1016.15
2018-06-30T10:52:14.412Z,1016.17
2018-06-30T10:53:14.371Z,1016.11
2018-06-30T10:54:14.430Z,1016.10
2018-06-30T10:55:14.290Z,1016.17
2018-06-30T10:56:14.252Z,1016.10
2018-06-30T10:57:14.207Z,1016.11
2018-06-30T10:58:14.166Z,1016.05
2018-06-30T10:59:14.126Z,1016.03
2018-06-30T11:00:14.138Z,1015.99
2018-06-30T11:01:14.047Z,1016.07
2018-06-30T11:02:14.003Z,1016.01
2018-06-30T11:03:13.962Z,1015.96
2018-06-30T11:04:13.953Z,1015.92
2018-06-30T11:05:14.002Z,1015.77
2018-06-30T11:06:13.839Z,1015.96
2018-06-30T11:07:13.802Z,1015.97
2018-06-30T11:08:13.758Z,1016.05
2018-06-30T11:09:13.715Z,1015.99
2018-06-30T11:10:13.675Z,1015.90
2018-06-30T11:11:13.638Z,1015.88
2018-06-30T11:12:13.596Z,1015.94
2018-06-30T11:13:13.553Z,1015.90
2018-06-30T11:14:13.512Z,1015.86
2018-06-30T11:15:13.471Z,1015.93
2018-06-30T11:16:13.430Z,1015.90
2018-06-30T11:17:13.388Z,1015.89
2018-06-30T11:18:13.347Z,1015.87
2018-06-30T11:19:13.306Z,1015.94
2018-06-30T11:20:13.316Z,1015.94
2018-06-30T11:21:13.228Z,1015.90
2018-06-30T11:22:13.183Z,1015.93
2018-06-30T11:23:13.142Z,1015.99
2018-06-30T11:24:13.103Z,1015.94
2018-06-30T11:25:13.060Z,1015.95
2018-06-30T11:26:13.019Z,1015.99
2018-06-30T11:27:12.978Z,1015.97
2018-06-30T11:28:12.937Z,1015.97
2018-06-30T11:29:12.895Z,1015.86
2018-06-30T11:30:12.856Z,1015.87
2018-06-30T11:31:12.814Z,1015.91
2018-06-30T11:32:12.773Z,1015.92
2018-06-30T11:33:12.730Z,1015.87
2018-06-30T11:34:12.690Z,1015.87
2018-06-30T11:35:12.648Z,1015.82
2018-06-30T11:36:12.608Z,1015.88
2018-06-30T11:37:12.567Z,1015.85
2018-06-30T11:38:12.526Z,1015.91
2018-06-30T11:39:12.485Z,1015.90
2018-06-30T11:40:12.445Z,1015.91
2018-06-30T11:41:12.404Z,1015.88
2018-06-30T11:42:12.361Z,1015.86
2018-06-30T11:43:12.327Z,1015.88
2018-06-30T11:44:12.283Z,1015.89
2018-06-30T11:45:12.237Z,1015.85
2018-06-30T11:46:12.199Z,1015.81
2018-06-30T11:47:12.156Z,1015.81
2018-06-30T11:48:12.115Z,1015.83
2018-06-30T11:49:12.073Z,1015.81
2018-06-30T11:50:12.033Z,1015.81
2018-06-30T11:51:11.992Z,1015.80
2018-06-30T11:52:11.950Z,1015.73
2018-06-30T11:53:11.908Z,1015.74
2018-06-30T11:54:11.868Z,1015.69
2018-06-30T11:55:11.828Z,1015.78
2018-06-30T11:56:11.786Z,1015.75
2018-06-30T11:57:11.744Z,1015.70
2018-06-30T11:58:11.704Z,1015.73
2018-06-30T11:59:11.663Z,1015.76
2018-06-30T12:00:11.623Z,1015.76
2018-06-30T12:01:11.580Z,1015.75
2018-06-30T12:02:11.602Z,1015.70
2018-06-30T12:03:11.499Z,1015.67
2018-06-30T12:04:11.457Z,1015.69
2018-06-30T12:05:11.424Z,1015.72